createdAt,value
2019-01-18T00:00:40.925Z,-7.49
2019-01-18T00:03:08.421Z,-7.45
2019-01-18T00:05:35.921Z,-7.29
2019-01-18T00:08:03.713Z,-7.32
2019-01-18T00:10:31.301Z,-7.26
2019-01-18T00:12:58.902Z,-7.21
2019-01-18T00:15:27.248Z,-7.38
2019-01-18T00:17:54.699Z,-7.36
2019-01-18T00:20:22.157Z,-7.40
2019-01-18T00:22:49.614Z,-7.29
2019-01-18T00:25:17.115Z,-7.39
2019-01-18T00:27:44.661Z,-7.31
2019-01-18T00:30:12.413Z,-6.88
2019-01-18T00:32:39.920Z,-7.15
2019-01-18T00:35:07.557Z,-7.27
2019-01-18T00:37:35.035Z,-7.43
2019-01-18T00:40:02.507Z,-7.57
2019-01-18T00:42:30.002Z,-7.52
2019-01-18T00:44:57.479Z,-7.71
2019-01-18T00:47:26.022Z,-8.02
2019-01-18T00:49:53.654Z,-8.08
2019-01-18T00:52:21.323Z,-8.33
2019-01-18T00:54:48.791Z,-8.41
2019-01-18T00:57:17.199Z,-8.43
2019-01-18T00:59:44.906Z,-8.41
2019-01-18T01:02:12.480Z,-8.28
2019-01-18T01:04:40.061Z,-8.22
2019-01-18T01:07:07.655Z,-8.19
2019-01-18T01:09:35.235Z,-8.15
2019-01-18T01:12:04.041Z,-8.03
2019-01-18T01:14:31.747Z,-8.07
2019-01-18T01:16:59.264Z,-7.91
2019-01-18T01:19:26.829Z,-8.05
2019-01-18T01:21:54.336Z,-8.10
2019-01-18T01:24:21.804Z,-8.14
2019-01-18T01:26:49.257Z,-8.19
2019-01-18T01:29:16.758Z,-8.18
2019-01-18T01:31:44.322Z,-8.12
2019-01-18T01:34:11.802Z,-7.99
2019-01-18T01:36:39.264Z,-7.95
2019-01-18T01:39:08.877Z,-8.01
2019-01-18T01:41:36.387Z,-7.94
2019-01-18T01:44:04.236Z,-8.09
2019-01-18T01:46:31.703Z,-8.24
2019-01-18T01:48:59.189Z,-8.27
2019-01-18T01:51:26.692Z,-8.24
2019-01-18T01:53:54.127Z,-8.02
2019-01-18T01:56:21.693Z,-8.23
2019-01-18T01:58:49.118Z,-8.24
2019-01-18T02:01:16.687Z,-8.30
2019-01-18T02:03:44.249Z,-8.40
2019-01-18T02:06:11.893Z,-8.59
2019-01-18T02:08:39.361Z,-8.79
2019-01-18T02:11:06.835Z,-8.90
2019-01-18T02:13:34.418Z,-8.87
2019-01-18T02:16:01.914Z,-8.94
2019-01-18T02:18:29.371Z,-8.82
2019-01-18T02:20:56.867Z,-8.87
2019-01-18T02:23:24.376Z,-8.41
2019-01-18T02:25:51.989Z,-8.69
2019-01-18T02:28:19.490Z,-8.90
2019-01-18T02:30:47.013Z,-9.09
2019-01-18T02:33:14.610Z,-9.27
2019-01-18T02:35:42.449Z,-9.38
2019-01-18T02:38:09.952Z,-9.47
2019-01-18T02:40:37.460Z,-9.36
2019-01-18T02:43:04.952Z,-8.94
2019-01-18T02:45:32.486Z,-8.82
2019-01-18T02:47:59.958Z,-8.99
2019-01-18T02:50:27.552Z,-9.33
2019-01-18T02:52:55.040Z,-9.58
2019-01-18T02:55:28.685Z,-10.01
2019-01-18T02:57:52.017Z,-10.15
2019-01-18T03:00:21.043Z,-9.92
2019-01-18T03:02:48.663Z,-9.60
2019-01-18T03:05:17.564Z,-9.21
2019-01-18T03:07:45.071Z,-9.09
2019-01-18T03:10:20.463Z,-9.90
2019-01-18T03:12:48.068Z,-10.35
2019-01-18T03:15:15.642Z,-10.66
2019-01-18T03:17:43.197Z,-10.66
2019-01-18T03:20:11.984Z,-10.43
2019-01-18T03:22:39.435Z,-10.01
2019-01-18T03:25:09.629Z,-9.96
2019-01-18T03:27:37.110Z,-9.99
2019-01-18T03:30:18.202Z,-10.01
2019-01-18T03:32:36.106Z,-9.87
2019-01-18T03:35:04.154Z,-10.06
2019-01-18T03:37:31.639Z,-10.64
2019-01-18T03:39:59.201Z,-10.70
2019-01-18T03:42:26.642Z,-10.85
2019-01-18T03:44:54.415Z,-10.81
2019-01-18T03:47:22.092Z,-10.73
2019-01-18T03:49:49.537Z,-11.17
2019-01-18T03:52:17.107Z,-11.43
2019-01-18T03:54:44.666Z,-11.38
2019-01-18T03:57:12.266Z,-11.28
2019-01-18T03:59:39.734Z,-11.34
2019-01-18T04:02:07.200Z,-11.63
2019-01-18T04:04:34.642Z,-11.69
2019-01-18T04:07:02.126Z,-11.67
2019-01-18T04:09:29.650Z,-11.43
2019-01-18T04:11:57.253Z,-11.04
2019-01-18T04:14:25.980Z,-10.49
2019-01-18T04:16:53.770Z,-10.45
2019-01-18T04:19:21.379Z,-10.21
2019-01-18T04:21:48.892Z,-10.25
2019-01-18T04:24:16.453Z,-10.38
2019-01-18T04:26:43.919Z,-10.24
2019-01-18T04:29:11.381Z,-10.27
2019-01-18T04:31:38.933Z,-10.38
2019-01-18T04:34:06.423Z,-10.53
2019-01-18T04:36:33.911Z,-10.65
2019-01-18T04:39:01.578Z,-10.74
2019-01-18T04:41:29.243Z,-10.97
2019-01-18T04:43:56.844Z,-10.95
2019-01-18T04:46:24.308Z,-10.81
2019-01-18T04:48:51.884Z,-10.67
2019-01-18T04:51:19.418Z,-10.28
2019-01-18T04:53:46.948Z,-10.29
2019-01-18T04:56:14.450Z,-10.52
2019-01-18T04:58:41.952Z,-10.77
2019-01-18T05:01:09.591Z,-11.05
2019-01-18T05:03:37.115Z,-11.13
2019-01-18T05:06:04.799Z,-11.19
2019-01-18T05:08:32.353Z,-11.20
2019-01-18T05:10:59.949Z,-11.23
2019-01-18T05:13:27.439Z,-10.93
2019-01-18T05:15:55.114Z,-10.80
2019-01-18T05:18:22.803Z,-10.63
2019-01-18T05:20:50.398Z,-10.73
2019-01-18T05:23:17.890Z,-10.75
2019-01-18T05:25:45.477Z,-10.87
2019-01-18T05:28:12.962Z,-10.79
2019-01-18T05:30:47.307Z,-10.61
2019-01-18T05:33:09.944Z,-10.64
2019-01-18T05:35:37.503Z,-10.99
2019-01-18T05:38:05.258Z,-11.26
2019-01-18T05:40:33.033Z,-11.40
2019-01-18T05:43:00.556Z,-11.36
2019-01-18T05:45:28.158Z,-11.58
2019-01-18T05:47:55.829Z,-11.86
2019-01-18T05:50:27.979Z,-11.95
2019-01-18T05:52:55.479Z,-12.00
2019-01-18T05:55:23.243Z,-12.46
2019-01-18T05:57:50.990Z,-12.51
2019-01-18T06:00:27.550Z,-12.40
2019-01-18T06:02:55.332Z,-12.59
2019-01-18T06:05:22.936Z,-12.47
2019-01-18T06:07:50.519Z,-12.43
2019-01-18T06:10:18.162Z,-12.27
2019-01-18T06:12:45.813Z,-12.11
2019-01-18T06:15:13.606Z,-11.86
2019-01-18T06:17:41.720Z,-11.90
2019-01-18T06:20:09.833Z,-11.86
2019-01-18T06:22:37.446Z,-12.02
2019-01-18T06:25:05.421Z,-12.05
2019-01-18T06:27:33.384Z,-12.01
2019-01-18T06:30:01.109Z,-11.87
2019-01-18T06:32:28.895Z,-11.96
2019-01-18T06:34:56.752Z,-11.92
2019-01-18T06:37:24.632Z,-11.70
2019-01-18T06:39:52.407Z,-11.55
2019-01-18T06:42:20.254Z,-11.41
2019-01-18T06:44:47.979Z,-11.37
2019-01-18T06:47:16.285Z,-11.26
2019-01-18T06:49:44.538Z,-11.06
2019-01-18T06:52:12.776Z,-10.93
2019-01-18T06:54:40.966Z,-10.71
2019-01-18T06:57:08.631Z,-10.62
2019-01-18T06:59:36.623Z,-10.41
2019-01-18T07:02:04.788Z,-10.31
2019-01-18T07:04:32.564Z,-10.30
2019-01-18T07:07:00.455Z,-9.89
2019-01-18T07:09:28.214Z,-8.93
2019-01-18T07:11:56.061Z,-8.04
2019-01-18T07:14:23.822Z,-7.24
2019-01-18T07:16:51.899Z,-6.02
2019-01-18T07:19:19.764Z,-5.75
2019-01-18T07:21:47.565Z,-5.56
2019-01-18T07:24:15.498Z,-5.34
2019-01-18T07:26:43.431Z,-5.75
2019-01-18T07:29:11.431Z,-4.99
2019-01-18T07:31:39.257Z,-5.10
2019-01-18T07:34:07.186Z,-5.36
2019-01-18T07:36:35.177Z,-6.11
2019-01-18T07:39:05.489Z,-6.59
2019-01-18T07:41:33.835Z,-7.46
2019-01-18T07:44:04.740Z,-7.68
2019-01-18T07:46:33.047Z,-7.22
2019-01-18T07:49:00.866Z,-6.85
2019-01-18T07:51:28.820Z,-6.94
2019-01-18T07:53:56.825Z,-7.03
2019-01-18T07:56:25.088Z,-6.41
2019-01-18T07:58:53.042Z,-5.34
2019-01-18T08:01:22.223Z,-4.48
2019-01-18T08:03:50.435Z,-3.77
2019-01-18T08:06:18.258Z,-3.78
2019-01-18T08:08:46.035Z,-4.08
2019-01-18T08:11:13.915Z,-4.07
2019-01-18T08:13:41.807Z,-4.41
2019-01-18T08:16:09.689Z,-5.54
2019-01-18T08:18:37.450Z,-5.05
2019-01-18T08:21:05.988Z,-4.93
2019-01-18T08:23:33.837Z,-5.72
2019-01-18T08:26:01.812Z,-5.41
2019-01-18T08:28:30.183Z,-5.62
2019-01-18T08:30:58.186Z,-5.39
2019-01-18T08:33:25.959Z,-4.93
2019-01-18T08:35:54.140Z,-4.45
2019-01-18T08:38:22.443Z,-3.96
2019-01-18T08:40:50.666Z,-4.39
2019-01-18T08:43:18.553Z,-5.12
2019-01-18T08:45:51.995Z,-4.84
2019-01-18T08:48:19.867Z,-5.31
2019-01-18T08:50:47.980Z,-5.84
2019-01-18T08:53:15.973Z,-5.81
2019-01-18T08:55:43.822Z,-5.86
2019-01-18T08:58:11.671Z,-5.84
2019-01-18T09:00:39.935Z,-5.48
2019-01-18T09:03:07.852Z,-4.86
2019-01-18T09:05:35.767Z,-4.29
2019-01-18T09:08:03.957Z,-3.92
2019-01-18T09:10:31.914Z,-3.78
2019-01-18T09:12:59.994Z,-3.35
2019-01-18T09:15:27.926Z,-2.75
2019-01-18T09:17:55.771Z,-3.04
2019-01-18T09:20:25.627Z,-2.77
2019-01-18T09:22:54.527Z,-2.06
2019-01-18T09:25:22.767Z,-1.46
2019-01-18T09:27:50.834Z,-0.68
2019-01-18T09:30:21.558Z,-0.47
2019-01-18T09:32:49.856Z,-0.13
2019-01-18T09:35:18.771Z,-2.04
2019-01-18T09:37:46.540Z,-2.98
2019-01-18T09:40:19.130Z,-2.76
2019-01-18T09:42:46.755Z,-3.54
2019-01-18T09:45:14.891Z,-3.52
2019-01-18T09:47:42.719Z,-3.36
2019-01-18T09:50:13.278Z,-4.02
2019-01-18T09:52:42.952Z,-3.52
2019-01-18T09:55:12.689Z,-3.41
2019-01-18T09:57:40.591Z,-3.59
2019-01-18T10:00:20.119Z,-3.87
2019-01-18T10:02:47.913Z,-4.09
2019-01-18T10:05:15.877Z,-3.80
2019-01-18T10:07:43.632Z,-3.26
2019-01-18T10:10:16.367Z,-2.31
2019-01-18T10:12:44.621Z,-1.97
2019-01-18T10:15:18.175Z,-1.62
2019-01-18T10:17:45.969Z,-1.09
2019-01-18T10:20:14.599Z,-2.14
2019-01-18T10:22:43.006Z,-2.56
2019-01-18T10:25:12.102Z,-2.75
2019-01-18T10:27:39.775Z,-2.77
2019-01-18T10:30:14.740Z,-3.03
2019-01-18T10:32:42.481Z,-2.57
2019-01-18T10:35:10.167Z,-2.24
2019-01-18T10:37:37.806Z,-2.52
2019-01-18T10:40:05.879Z,-2.48
2019-01-18T10:42:34.391Z,-2.01
2019-01-18T10:45:02.020Z,-1.58
2019-01-18T10:47:29.767Z,-1.11
2019-01-18T10:49:57.477Z,-0.97
2019-01-18T10:52:25.295Z,-0.72
2019-01-18T10:54:53.003Z,-1.07
2019-01-18T10:57:20.552Z,-1.36
2019-01-18T10:59:48.180Z,-1.77
2019-01-18T11:02:15.800Z,-2.16
2019-01-18T11:04:43.380Z,-1.52
2019-01-18T11:07:11.328Z,-0.67
2019-01-18T11:09:38.953Z,-0.14
2019-01-18T11:12:06.585Z,-0.49
2019-01-18T11:14:34.406Z,-0.07
2019-01-18T11:17:01.951Z,0.16
2019-01-18T11:19:29.530Z,0.93
2019-01-18T11:21:57.303Z,0.54
2019-01-18T11:24:24.890Z,0.50
2019-01-18T11:26:52.571Z,1.07
2019-01-18T11:29:20.890Z,1.61
2019-01-18T11:31:48.406Z,1.94
2019-01-18T11:34:15.951Z,2.29
2019-01-18T11:36:43.534Z,2.78
2019-01-18T11:39:11.232Z,1.58
2019-01-18T11:41:39.189Z,0.32
2019-01-18T11:44:07.122Z,-0.21
2019-01-18T11:46:35.132Z,0.41
2019-01-18T11:49:03.000Z,1.01
2019-01-18T11:51:30.724Z,1.45
2019-01-18T11:53:58.691Z,1.99
2019-01-18T11:56:26.551Z,2.30
2019-01-18T11:58:54.518Z,1.07
2019-01-18T12:01:22.326Z,0.73
2019-01-18T12:03:50.128Z,0.24
2019-01-18T12:06:17.890Z,-0.27
2019-01-18T12:08:45.561Z,-0.55
2019-01-18T12:11:13.568Z,-0.65
2019-01-18T12:13:41.429Z,-1.10
2019-01-18T12:16:09.235Z,-1.43
2019-01-18T12:18:37.044Z,-1.73
2019-01-18T12:21:05.030Z,-1.88
2019-01-18T12:23:32.693Z,-1.52
2019-01-18T12:26:00.414Z,-1.24
2019-01-18T12:28:28.075Z,-0.83
2019-01-18T12:30:55.996Z,-0.56
2019-01-18T12:33:23.671Z,0.08
2019-01-18T12:35:51.603Z,0.54
2019-01-18T12:38:19.900Z,0.77
2019-01-18T12:40:47.674Z,0.57
2019-01-18T12:43:15.327Z,0.53
2019-01-18T12:45:42.909Z,0.21
2019-01-18T12:48:10.603Z,0.40
2019-01-18T12:50:40.394Z,0.10
2019-01-18T12:53:08.464Z,-0.02
2019-01-18T12:55:36.768Z,-0.05
2019-01-18T12:58:05.153Z,-0.18
2019-01-18T13:00:33.646Z,-0.17
2019-01-18T13:03:01.525Z,-0.06
2019-01-18T13:05:36.368Z,0.53
2019-01-18T13:08:04.364Z,0.82
2019-01-18T13:10:31.959Z,0.52
2019-01-18T13:12:59.573Z,0.55
2019-01-18T13:15:30.944Z,0.18
2019-01-18T13:17:58.948Z,0.43
2019-01-18T13:20:26.824Z,0.54
2019-01-18T13:22:54.661Z,0.64
2019-01-18T13:25:22.492Z,0.93
2019-01-18T13:27:50.607Z,1.07
2019-01-18T13:30:18.484Z,1.29
2019-01-18T13:32:46.137Z,1.24
2019-01-18T13:35:14.276Z,1.11
2019-01-18T13:37:42.073Z,1.17
2019-01-18T13:40:15.138Z,1.42
2019-01-18T13:42:42.796Z,1.50
2019-01-18T13:45:10.946Z,0.96
2019-01-18T13:47:39.686Z,0.21
2019-01-18T13:50:10.086Z,0.02
2019-01-18T13:52:37.807Z,-0.14
2019-01-18T13:55:09.337Z,0.02
2019-01-18T13:57:36.997Z,0.30
2019-01-18T14:00:05.503Z,0.22
2019-01-18T14:02:33.798Z,0.42
2019-01-18T14:05:01.673Z,0.39
2019-01-18T14:07:29.434Z,0.55
2019-01-18T14:09:57.261Z,0.35
2019-01-18T14:12:24.991Z,0.03
2019-01-18T14:14:53.604Z,0.04
2019-01-18T14:17:21.323Z,-0.28
2019-01-18T14:19:49.097Z,-0.30
2019-01-18T14:22:16.802Z,-0.60
2019-01-18T14:24:44.446Z,-0.70
2019-01-18T14:27:12.896Z,-0.84
2019-01-18T14:29:41.706Z,-0.73
2019-01-18T14:32:10.260Z,-0.88
2019-01-18T14:34:38.820Z,-1.04
2019-01-18T14:37:06.355Z,-1.10
2019-01-18T14:39:34.102Z,-1.22
2019-01-18T14:42:01.772Z,-1.35
2019-01-18T14:44:30.027Z,-1.34
2019-01-18T14:46:57.714Z,-1.40
2019-01-18T14:49:25.463Z,-1.49
2019-01-18T14:51:53.503Z,-1.72
2019-01-18T14:54:21.782Z,-1.58
2019-01-18T14:56:49.765Z,-1.64
2019-01-18T14:59:17.500Z,-1.87
2019-01-18T15:01:45.142Z,-2.20
2019-01-18T15:04:12.822Z,-2.52
2019-01-18T15:06:40.387Z,-2.67
2019-01-18T15:09:09.947Z,-2.84
2019-01-18T15:11:37.734Z,-2.95
2019-01-18T15:14:05.306Z,-3.07
2019-01-18T15:16:32.933Z,-3.10
2019-01-18T15:19:00.767Z,-3.14
2019-01-18T15:21:28.646Z,-3.08
2019-01-18T15:23:56.377Z,-3.25
2019-01-18T15:26:24.085Z,-3.35
2019-01-18T15:28:51.738Z,-3.35
2019-01-18T15:31:19.431Z,-3.40
2019-01-18T15:33:47.123Z,-3.30
2019-01-18T15:36:14.846Z,-3.23
2019-01-18T15:38:42.509Z,-3.28
2019-01-18T15:41:10.033Z,-3.42
2019-01-18T15:43:37.754Z,-3.42
2019-01-18T15:46:05.274Z,-3.30
2019-01-18T15:48:33.067Z,-3.36
2019-01-18T15:51:00.732Z,-3.26
2019-01-18T15:53:28.897Z,-3.28
2019-01-18T15:55:56.697Z,-3.11
2019-01-18T15:58:24.353Z,-2.95
2019-01-18T16:00:52.191Z,-2.58
2019-01-18T16:03:19.978Z,-2.41
2019-01-18T16:05:47.543Z,-2.99
2019-01-18T16:08:15.157Z,-3.22
2019-01-18T16:10:42.795Z,-3.41
2019-01-18T16:13:11.675Z,-3.45
2019-01-18T16:16:33.039Z,-3.51
2019-01-18T16:19:00.754Z,-3.57
2019-01-18T16:21:28.297Z,-3.48
2019-01-18T16:23:55.905Z,-3.57
2019-01-18T16:26:23.698Z,-3.59
2019-01-18T16:28:51.374Z,-3.52
2019-01-18T16:31:18.983Z,-3.55
2019-01-18T16:33:46.905Z,-3.56
2019-01-18T16:36:14.984Z,-3.44
2019-01-18T16:38:42.730Z,-3.53
2019-01-18T16:41:10.274Z,-3.46
2019-01-18T16:43:40.892Z,-3.68
2019-01-18T16:46:08.737Z,-3.70
2019-01-18T16:48:36.375Z,-3.74
2019-01-18T16:51:04.525Z,-3.68
2019-01-18T16:53:32.875Z,-3.57
2019-01-18T16:56:01.368Z,-3.48
2019-01-18T16:58:29.240Z,-3.39
2019-01-18T17:00:58.522Z,-3.12
2019-01-18T17:03:30.221Z,-2.86
2019-01-18T17:05:55.886Z,-3.23
2019-01-18T17:08:23.433Z,-3.59
2019-01-18T17:10:51.196Z,-3.80
2019-01-18T17:13:19.834Z,-3.92
2019-01-18T17:15:47.609Z,-4.02
2019-01-18T17:18:15.498Z,-4.06
2019-01-18T17:20:43.631Z,-4.05
2019-01-18T17:23:11.353Z,-3.79
2019-01-18T17:25:39.131Z,-3.52
2019-01-18T17:28:07.049Z,-3.69
2019-01-18T17:30:35.258Z,-3.77
2019-01-18T17:33:03.056Z,-3.82
2019-01-18T17:35:42.772Z,-3.80
2019-01-18T17:38:30.438Z,-3.78
2019-01-18T17:41:17.211Z,-3.69
2019-01-18T17:44:30.142Z,-3.71
2019-01-18T17:47:42.190Z,-3.51
2019-01-18T17:50:54.140Z,-3.48
2019-01-18T17:53:48.838Z,-3.14
2019-01-18T17:56:58.131Z,-3.55
2019-01-18T17:59:49.880Z,-3.56
2019-01-18T18:02:56.728Z,-3.33
2019-01-18T18:06:21.344Z,-3.01
2019-01-18T18:09:19.419Z,-3.35
2019-01-18T18:12:33.059Z,-3.80
2019-01-18T18:15:47.894Z,-3.84
2019-01-18T18:19:00.079Z,-3.69
2019-01-18T18:22:00.284Z,-3.66
2019-01-18T18:25:30.814Z,-3.59
2019-01-18T18:28:39.169Z,-3.55
2019-01-18T18:31:38.974Z,-3.39
2019-01-18T18:34:46.084Z,-3.18
2019-01-18T18:38:04.515Z,-3.30
2019-01-18T18:41:00.206Z,-3.53
2019-01-18T18:43:50.485Z,-3.38
2019-01-18T18:46:56.183Z,-3.61
2019-01-18T18:49:47.043Z,-3.65
2019-01-18T18:52:46.648Z,-3.84
2019-01-18T18:55:45.589Z,-3.92
2019-01-18T18:58:50.582Z,-3.70
2019-01-18T19:01:37.642Z,-3.49
2019-01-18T19:04:19.781Z,-3.51
2019-01-18T19:07:07.198Z,-3.35
2019-01-18T19:10:11.271Z,-3.24
2019-01-18T19:13:20.846Z,-2.96
2019-01-18T19:16:18.238Z,-3.02
2019-01-18T19:19:35.395Z,-3.05
2019-01-18T19:22:44.781Z,-3.31
2019-01-18T19:25:45.982Z,-3.38
2019-01-18T19:28:56.854Z,-3.20
2019-01-18T19:32:01.148Z,-3.41
2019-01-18T19:34:51.081Z,-3.69
2019-01-18T19:37:52.069Z,-3.76
2019-01-18T19:40:46.614Z,-3.86
2019-01-18T19:43:48.806Z,-3.78
2019-01-18T19:47:04.637Z,-3.32
2019-01-18T19:49:52.371Z,-2.94
2019-01-18T19:53:26.271Z,-2.96
2019-01-18T19:56:31.390Z,-2.80
2019-01-18T19:59:26.306Z,-3.27
2019-01-18T20:02:13.021Z,-3.56
2019-01-18T20:05:37.660Z,-3.74
2019-01-18T20:08:50.072Z,-3.82
2019-01-18T20:11:54.046Z,-3.78
2019-01-18T20:14:45.643Z,-3.57
2019-01-18T20:17:35.000Z,-3.44
2019-01-18T20:20:44.088Z,-3.62
2019-01-18T20:23:49.997Z,-3.67
2019-01-18T20:26:49.309Z,-3.66
2019-01-18T20:29:57.277Z,-3.57
2019-01-18T20:33:01.575Z,-3.44
2019-01-18T20:35:48.517Z,-2.95
2019-01-18T20:39:22.351Z,-3.27
2019-01-18T20:42:27.357Z,-3.05
2019-01-18T20:45:16.464Z,-3.34
2019-01-18T20:48:44.232Z,-3.38
2019-01-18T20:51:43.615Z,-3.41
2019-01-18T20:54:51.482Z,-3.19
2019-01-18T20:57:41.246Z,-2.92
2019-01-18T21:00:48.027Z,-2.40
2019-01-18T21:03:52.293Z,-2.69
2019-01-18T21:06:52.623Z,-2.80
2019-01-18T21:09:38.222Z,-2.84
2019-01-18T21:12:38.924Z,-3.22
2019-01-18T21:15:32.251Z,-3.29
2019-01-18T21:18:50.410Z,-3.34
2019-01-18T21:22:24.490Z,-3.01
2019-01-18T21:25:18.499Z,-2.88
2019-01-18T21:28:33.398Z,-3.03
2019-01-18T21:31:24.277Z,-2.79
2019-01-18T21:34:48.805Z,-2.67
2019-01-18T21:37:51.417Z,-2.93
2019-01-18T21:40:42.608Z,-3.04
2019-01-18T21:44:02.195Z,-3.14
2019-01-18T21:47:11.374Z,-3.14
2019-01-18T21:50:20.230Z,-3.10
2019-01-18T21:53:35.631Z,-2.70
2019-01-18T21:56:35.308Z,-2.81
2019-01-18T21:59:46.927Z,-2.66
2019-01-18T22:03:08.362Z,-2.68
2019-01-18T22:06:15.754Z,-2.72
2019-01-18T22:09:10.093Z,-2.73
2019-01-18T22:12:19.849Z,-2.27
2019-01-18T22:15:26.032Z,-2.19
2019-01-18T22:18:19.645Z,-2.73
2019-01-18T22:21:36.919Z,-2.72
2019-01-18T22:24:35.392Z,-2.86
2019-01-18T22:27:29.308Z,-3.12
2019-01-18T22:30:47.611Z,-3.05
2019-01-18T22:33:42.627Z,-3.19
2019-01-18T22:36:44.516Z,-3.25
2019-01-18T22:39:57.039Z,-3.32
2019-01-18T22:43:08.991Z,-3.33
2019-01-18T22:46:19.541Z,-3.05
2019-01-18T22:49:15.480Z,-2.99
2019-01-18T22:52:39.416Z,-3.03
2019-01-18T22:55:26.239Z,-3.03
2019-01-18T22:58:24.571Z,-2.71
2019-01-18T23:01:34.471Z,-2.85
2019-01-18T23:04:55.263Z,-2.85
2019-01-18T23:08:05.086Z,-2.78
2019-01-18T23:11:20.121Z,-2.79
2019-01-18T23:14:32.097Z,-2.77
2019-01-18T23:17:51.180Z,-2.86
2019-01-18T23:20:50.116Z,-2.84
2019-01-18T23:23:28.121Z,-2.59
2019-01-18T23:26:43.693Z,-2.64
2019-01-18T23:29:25.213Z,-2.70
2019-01-18T23:32:37.936Z,-3.04
2019-01-18T23:35:49.405Z,-3.12
2019-01-18T23:39:13.652Z,-3.20
2019-01-18T23:42:28.887Z,-3.23
2019-01-18T23:45:52.281Z,-3.37
2019-01-18T23:48:58.828Z,-3.38
2019-01-18T23:52:20.293Z,-3.36
2019-01-18T23:55:28.401Z,-3.25
2019-01-18T23:58:28.515Z,-3.25
